sensor_id;sensor_type;location;lat;lon;timestamp;pressure;altitude;pressure_sealevel;temperature;humidity
72359;BME280;60317;48.880;-0.862;2023-06-22T00:01:48;100626.59;;;21.94;59.43
72359;BME280;60317;48.880;-0.862;2023-06-22T00:04:15;100623.16;;;21.92;59.61
72359;BME280;60317;48.880;-0.862;2023-06-22T00:06:42;100630.25;;;21.93;59.38
72359;BME280;60317;48.880;-0.862;2023-06-22T00:09:08;100631.25;;;21.92;59.41
72359;BME280;60317;48.880;-0.862;2023-06-22T00:11:36;100625.00;;;21.91;59.64
72359;BME280;60317;48.880;-0.862;2023-06-22T00:14:03;100617.78;;;21.92;59.41
72359;BME280;60317;48.880;-0.862;2023-06-22T00:16:31;100610.56;;;21.92;59.51
72359;BME280;60317;48.880;-0.862;2023-06-22T00:18:58;100621.31;;;21.92;59.50
72359;BME280;60317;48.880;-0.862;2023-06-22T00:21:25;100621.31;;;21.92;59.68
72359;BME280;60317;48.880;-0.862;2023-06-22T00:23:51;100618.78;;;21.91;59.67
72359;BME280;60317;48.880;-0.862;2023-06-22T00:26:18;100619.75;;;21.90;59.61
72359;BME280;60317;48.880;-0.862;2023-06-22T00:28:47;100626.97;;;21.89;59.56
72359;BME280;60317;48.880;-0.862;2023-06-22T00:31:13;100619.91;;;21.88;59.80
72359;BME280;60317;48.880;-0.862;2023-06-22T00:33:40;100619.91;;;21.88;59.69
72359;BME280;60317;48.880;-0.862;2023-06-22T00:36:06;100612.94;;;21.86;59.70
72359;BME280;60317;48.880;-0.862;2023-06-22T00:38:33;100622.75;;;21.87;59.74
72359;BME280;60317;48.880;-0.862;2023-06-22T00:41:00;100621.03;;;21.86;59.76
72359;BME280;60317;48.880;-0.862;2023-06-22T00:43:26;100623.72;;;21.86;59.99
72359;BME280;60317;48.880;-0.862;2023-06-22T00:45:56;100610.41;;;21.84;59.94
72359;BME280;60317;48.880;-0.862;2023-06-22T00:48:22;100614.78;;;21.85;59.79
72359;BME280;60317;48.880;-0.862;2023-06-22T00:50:49;100613.09;;;21.84;59.98
72359;BME280;60317;48.880;-0.862;2023-06-22T00:53:16;100606.88;;;21.84;59.98
72359;BME280;60317;48.880;-0.862;2023-06-22T00:55:43;100604.31;;;21.82;60.05
72359;BME280;60317;48.880;-0.862;2023-06-22T00:58:11;100598.06;;;21.82;59.95
72359;BME280;60317;48.880;-0.862;2023-06-22T01:00:38;100597.38;;;21.80;60.09
72359;BME280;60317;48.880;-0.862;2023-06-22T01:03:07;100592.84;;;21.80;60.04
72359;BME280;60317;48.880;-0.862;2023-06-22T01:05:34;100592.84;;;21.80;60.27
72359;BME280;60317;48.880;-0.862;2023-06-22T01:08:07;100579.53;;;21.79;60.21
72359;BME280;60317;48.880;-0.862;2023-06-22T01:10:41;100581.38;;;21.78;60.24
72359;BME280;60317;48.880;-0.862;2023-06-22T01:13:18;100580.53;;;21.78;60.08
72359;BME280;60317;48.880;-0.862;2023-06-22T01:15:51;100576.13;;;21.77;60.29
72359;BME280;60317;48.880;-0.862;2023-06-22T01:18:22;100579.69;;;21.77;60.20
72359;BME280;60317;48.880;-0.862;2023-06-22T01:20:50;100583.38;;;21.76;60.12
72359;BME280;60317;48.880;-0.862;2023-06-22T01:23:33;100580.78;;;21.75;60.34
72359;BME280;60317;48.880;-0.862;2023-06-22T01:26:06;100586.19;;;21.75;60.25
72359;BME280;60317;48.880;-0.862;2023-06-22T01:28:42;100584.47;;;21.74;60.36
72359;BME280;60317;48.880;-0.862;2023-06-22T01:31:12;100586.44;;;21.72;60.36
72359;BME280;60317;48.880;-0.862;2023-06-22T01:33:43;100587.03;;;21.75;60.48
72359;BME280;60317;48.880;-0.862;2023-06-22T01:36:10;100591.44;;;21.76;60.30
72359;BME280;60317;48.880;-0.862;2023-06-22T01:38:37;100591.56;;;21.75;60.32
72359;BME280;60317;48.880;-0.862;2023-06-22T01:41:04;100582.75;;;21.73;60.30
72359;BME280;60317;48.880;-0.862;2023-06-22T01:43:31;100580.94;;;21.73;60.36
72359;BME280;60317;48.880;-0.862;2023-06-22T01:46:01;100590.72;;;21.74;60.34
72359;BME280;60317;48.880;-0.862;2023-06-22T01:48:28;100583.63;;;21.73;60.30
72359;BME280;60317;48.880;-0.862;2023-06-22T01:50:55;100573.84;;;21.72;60.25
72359;BME280;60317;48.880;-0.862;2023-06-22T01:53:22;100578.53;;;21.70;60.31
72359;BME280;60317;48.880;-0.862;2023-06-22T01:55:49;100583.06;;;21.70;60.32
72359;BME280;60317;48.880;-0.862;2023-06-22T01:58:16;100571.44;;;21.69;60.30
72359;BME280;60317;48.880;-0.862;2023-06-22T02:00:48;100570.47;;;21.70;60.45
72359;BME280;60317;48.880;-0.862;2023-06-22T02:03:19;100568.75;;;21.69;60.37
72359;BME280;60317;48.880;-0.862;2023-06-22T02:05:50;100573.28;;;21.68;60.26
72359;BME280;60317;48.880;-0.862;2023-06-22T02:08:20;100572.56;;;21.66;60.35
72359;BME280;60317;48.880;-0.862;2023-06-22T02:10:49;100571.72;;;21.66;60.24
72359;BME280;60317;48.880;-0.862;2023-06-22T02:13:17;100566.63;;;21.63;60.61
72359;BME280;60317;48.880;-0.862;2023-06-22T02:15:44;100571.00;;;21.64;60.30
72359;BME280;60317;48.880;-0.862;2023-06-22T02:18:12;100569.31;;;21.63;60.44
72359;BME280;60317;48.880;-0.862;2023-06-22T02:20:40;100568.47;;;21.62;60.49
72359;BME280;60317;48.880;-0.862;2023-06-22T02:23:07;100571.16;;;21.62;60.42
72359;BME280;60317;48.880;-0.862;2023-06-22T02:25:34;100569.44;;;21.61;60.49
72359;BME280;60317;48.880;-0.862;2023-06-22T02:28:01;100560.53;;;21.61;60.52
72359;BME280;60317;48.880;-0.862;2023-06-22T02:30:28;100565.91;;;21.61;60.54
72359;BME280;60317;48.880;-0.862;2023-06-22T02:32:55;100564.22;;;21.60;60.59
72359;BME280;60317;48.880;-0.862;2023-06-22T02:35:22;100553.31;;;21.61;60.65
72359;BME280;60317;48.880;-0.862;2023-06-22T02:37:50;100563.22;;;21.61;60.62
72359;BME280;60317;48.880;-0.862;2023-06-22T02:40:16;100550.88;;;21.58;60.53
72359;BME280;60317;48.880;-0.862;2023-06-22T02:42:43;100557.84;;;21.61;60.63
72359;BME280;60317;48.880;-0.862;2023-06-22T02:45:10;100557.97;;;21.59;60.42
72359;BME280;60317;48.880;-0.862;2023-06-22T02:47:36;100552.59;;;21.59;60.31
72359;BME280;60317;48.880;-0.862;2023-06-22T02:50:03;100552.72;;;21.58;60.52
72359;BME280;60317;48.880;-0.862;2023-06-22T02:52:30;100558.94;;;21.58;60.53
72359;BME280;60317;48.880;-0.862;2023-06-22T02:54:57;100560.78;;;21.58;60.46
72359;BME280;60317;48.880;-0.862;2023-06-22T02:57:24;100558.09;;;21.58;60.48
72359;BME280;60317;48.880;-0.862;2023-06-22T02:59:51;100554.56;;;21.57;60.19
72359;BME280;60317;48.880;-0.862;2023-06-22T03:02:17;100550.19;;;21.56;60.40
72359;BME280;60317;48.880;-0.862;2023-06-22T03:04:44;100556.41;;;21.57;60.40
72359;BME280;60317;48.880;-0.862;2023-06-22T03:07:11;100548.63;;;21.54;60.28
72359;BME280;60317;48.880;-0.862;2023-06-22T03:09:37;100553.00;;;21.55;60.46
72359;BME280;60317;48.880;-0.862;2023-06-22T03:12:06;100564.75;;;21.54;60.30
72359;BME280;60317;48.880;-0.862;2023-06-22T03:14:32;100574.50;;;21.55;60.21
72359;BME280;60317;48.880;-0.862;2023-06-22T03:16:59;100573.56;;;21.56;60.22
72359;BME280;60317;48.880;-0.862;2023-06-22T03:19:25;100567.44;;;21.54;60.41
72359;BME280;60317;48.880;-0.862;2023-06-22T03:21:52;100569.28;;;21.53;60.34
72359;BME280;60317;48.880;-0.862;2023-06-22T03:24:18;100567.44;;;21.54;60.35
72359;BME280;60317;48.880;-0.862;2023-06-22T03:26:45;100569.13;;;21.55;60.51
72359;BME280;60317;48.880;-0.862;2023-06-22T03:29:13;100562.34;;;21.51;60.38
72359;BME280;60317;48.880;-0.862;2023-06-22T03:31:39;100575.50;;;21.54;60.42
72359;BME280;60317;48.880;-0.862;2023-06-22T03:34:06;100572.81;;;21.54;60.35
72359;BME280;60317;48.880;-0.862;2023-06-22T03:36:33;100564.91;;;21.52;60.42
72359;BME280;60317;48.880;-0.862;2023-06-22T03:38:59;100561.50;;;21.50;60.61
72359;BME280;60317;48.880;-0.862;2023-06-22T03:41:26;100562.34;;;21.51;60.51
72359;BME280;60317;48.880;-0.862;2023-06-22T03:43:52;100560.91;;;21.47;60.50
72359;BME280;60317;48.880;-0.862;2023-06-22T03:46:20;100558.97;;;21.49;60.58
72359;BME280;60317;48.880;-0.862;2023-06-22T03:48:47;100549.16;;;21.48;60.63
72359;BME280;60317;48.880;-0.862;2023-06-22T03:51:13;100559.91;;;21.48;60.54
72359;BME280;60317;48.880;-0.862;2023-06-22T03:53:40;100557.97;;;21.50;60.50
72359;BME280;60317;48.880;-0.862;2023-06-22T03:56:07;100559.06;;;21.47;60.66
72359;BME280;60317;48.880;-0.862;2023-06-22T03:58:33;100560.06;;;21.46;60.57
72359;BME280;60317;48.880;-0.862;2023-06-22T04:01:00;100559.91;;;21.48;60.73
72359;BME280;60317;48.880;-0.862;2023-06-22T04:03:28;100567.13;;;21.47;60.62
72359;BME280;60317;48.880;-0.862;2023-06-22T04:05:54;100564.59;;;21.46;60.73
72359;BME280;60317;48.880;-0.862;2023-06-22T04:08:21;100564.59;;;21.46;60.69
72359;BME280;60317;48.880;-0.862;2023-06-22T04:10:48;100561.91;;;21.46;60.62
72359;BME280;60317;48.880;-0.862;2023-06-22T04:13:14;100570.81;;;21.46;60.54
72359;BME280;60317;48.880;-0.862;2023-06-22T04:15:41;100565.56;;;21.44;60.58
72359;BME280;60317;48.880;-0.862;2023-06-22T04:18:07;100573.63;;;21.44;60.48
72359;BME280;60317;48.880;-0.862;2023-06-22T04:20:35;100572.66;;;21.46;60.58
72359;BME280;60317;48.880;-0.862;2023-06-22T04:23:02;100577.06;;;21.47;60.57
72359;BME280;60317;48.880;-0.862;2023-06-22T04:25:29;100578.63;;;21.49;60.59
72359;BME280;60317;48.880;-0.862;2023-06-22T04:27:56;100573.09;;;21.51;60.44
72359;BME280;60317;48.880;-0.862;2023-06-22T04:30:22;100575.50;;;21.54;60.37
72359;BME280;60317;48.880;-0.862;2023-06-22T04:32:49;100584.56;;;21.53;60.46
72359;BME280;60317;48.880;-0.862;2023-06-22T04:35:15;100582.59;;;21.45;60.76
72359;BME280;60317;48.880;-0.862;2023-06-22T04:37:43;100586.50;;;21.41;61.27
72359;BME280;60317;48.880;-0.862;2023-06-22T04:40:10;100588.91;;;21.34;61.54
72359;BME280;60317;48.880;-0.862;2023-06-22T04:42:38;100589.84;;;21.33;61.64
72359;BME280;60317;48.880;-0.862;2023-06-22T04:45:06;100594.38;;;21.33;61.85
72359;BME280;60317;48.880;-0.862;2023-06-22T04:47:32;100600.75;;;21.32;62.02
72359;BME280;60317;48.880;-0.862;2023-06-22T04:49:59;100603.44;;;21.32;61.90
72359;BME280;60317;48.880;-0.862;2023-06-22T04:52:25;100605.91;;;21.35;62.06
72359;BME280;60317;48.880;-0.862;2023-06-22T04:54:53;100612.81;;;21.37;61.93
72359;BME280;60317;48.880;-0.862;2023-06-22T04:57:20;100606.75;;;21.35;62.06
72359;BME280;60317;48.880;-0.862;2023-06-22T04:59:46;100609.44;;;21.35;62.38
72359;BME280;60317;48.880;-0.862;2023-06-22T05:02:13;100610.44;;;21.34;62.04
72359;BME280;60317;48.880;-0.862;2023-06-22T05:04:39;100609.81;;;21.31;62.18
72359;BME280;60317;48.880;-0.862;2023-06-22T05:07:06;100611.13;;;21.36;62.00
72359;BME280;60317;48.880;-0.862;2023-06-22T05:09:33;100608.75;;;21.43;61.76
72359;BME280;60317;48.880;-0.862;2023-06-22T05:12:02;100607.63;;;21.46;61.40
72359;BME280;60317;48.880;-0.862;2023-06-22T05:14:28;100610.91;;;21.49;61.35
72359;BME280;60317;48.880;-0.862;2023-06-22T05:16:55;100609.91;;;21.50;61.27
72359;BME280;60317;48.880;-0.862;2023-06-22T05:19:22;100604.53;;;21.50;61.14
72359;BME280;60317;48.880;-0.862;2023-06-22T05:21:48;100608.06;;;21.51;61.18
72359;BME280;60317;48.880;-0.862;2023-06-22T05:24:15;100610.75;;;21.51;61.00
72359;BME280;60317;48.880;-0.862;2023-06-22T05:26:41;100594.88;;;21.48;60.95
72359;BME280;60317;48.880;-0.862;2023-06-22T05:29:09;100607.09;;;21.52;60.96
72359;BME280;60317;48.880;-0.862;2023-06-22T05:31:36;100608.06;;;21.51;60.93
72359;BME280;60317;48.880;-0.862;2023-06-22T05:34:02;100607.09;;;21.52;61.12
72359;BME280;60317;48.880;-0.862;2023-06-22T05:36:29;100606.09;;;21.53;61.05
72359;BME280;60317;48.880;-0.862;2023-06-22T05:38:56;100614.16;;;21.53;61.08
72359;BME280;60317;48.880;-0.862;2023-06-22T05:41:23;100598.59;;;21.56;60.68
72359;BME280;60317;48.880;-0.862;2023-06-22T05:43:50;100604.81;;;21.57;60.84
72359;BME280;60317;48.880;-0.862;2023-06-22T05:46:19;100594.78;;;21.59;60.66
72359;BME280;60317;48.880;-0.862;2023-06-22T05:48:45;100591.38;;;21.57;60.54
72359;BME280;60317;48.880;-0.862;2023-06-22T05:51:12;100594.06;;;21.57;60.51
72359;BME280;60317;48.880;-0.862;2023-06-22T05:53:39;100587.69;;;21.58;60.53
72359;BME280;60317;48.880;-0.862;2023-06-22T05:56:05;100593.91;;;21.58;60.61
72359;BME280;60317;48.880;-0.862;2023-06-22T05:58:32;100600.28;;;21.57;60.44
72359;BME280;60317;48.880;-0.862;2023-06-22T06:00:58;100593.22;;;21.56;60.49
72359;BME280;60317;48.880;-0.862;2023-06-22T06:03:26;100590.38;;;21.58;60.48
72359;BME280;60317;48.880;-0.862;2023-06-22T06:05:53;100583.88;;;21.60;60.42
72359;BME280;60317;48.880;-0.862;2023-06-22T06:08:19;100580.34;;;21.60;60.42
72359;BME280;60317;48.880;-0.862;2023-06-22T06:10:46;100582.75;;;21.63;60.26
72359;BME280;60317;48.880;-0.862;2023-06-22T06:13:12;100584.72;;;21.61;60.21
72359;BME280;60317;48.880;-0.862;2023-06-22T06:15:39;100590.25;;;21.59;59.88
72359;BME280;60317;48.880;-0.862;2023-06-22T06:18:06;100586.72;;;21.59;59.79
72359;BME280;60317;48.880;-0.862;2023-06-22T06:20:34;100587.56;;;21.59;59.65
72359;BME280;60317;48.880;-0.862;2023-06-22T06:23:01;100592.78;;;21.61;59.37
72359;BME280;60317;48.880;-0.862;2023-06-22T06:25:27;100591.91;;;21.51;59.42
72359;BME280;60317;48.880;-0.862;2023-06-22T06:27:54;100585.56;;;21.52;59.59
72359;BME280;60317;48.880;-0.862;2023-06-22T06:30:20;100584.72;;;21.61;59.64
72359;BME280;60317;48.880;-0.862;2023-06-22T06:32:47;100591.94;;;21.60;59.68
72359;BME280;60317;48.880;-0.862;2023-06-22T06:35:15;100593.53;;;21.63;59.41
72359;BME280;60317;48.880;-0.862;2023-06-22T06:37:45;100592.38;;;21.65;59.84
72359;BME280;60317;48.880;-0.862;2023-06-22T06:40:13;100600.59;;;21.64;59.73
72359;BME280;60317;48.880;-0.862;2023-06-22T06:42:41;100588.16;;;21.63;59.80
72359;BME280;60317;48.880;-0.862;2023-06-22T06:45:08;100592.38;;;21.65;59.51
72359;BME280;60317;48.880;-0.862;2023-06-22T06:47:35;100593.66;;;21.71;59.41
72359;BME280;60317;48.880;-0.862;2023-06-22T06:50:02;100589.56;;;21.67;59.51
72359;BME280;60317;48.880;-0.862;2023-06-22T06:52:29;100591.53;;;21.65;59.41
72359;BME280;60317;48.880;-0.862;2023-06-22T06:54:56;100604.00;;;21.66;59.35
72359;BME280;60317;48.880;-0.862;2023-06-22T06:57:23;100605.56;;;21.68;58.96
72359;BME280;60317;48.880;-0.862;2023-06-22T06:59:50;100607.13;;;21.71;58.76
72359;BME280;60317;48.880;-0.862;2023-06-22T07:02:16;100609.09;;;21.69;57.98
72359;BME280;60317;48.880;-0.862;2023-06-22T07:04:43;100600.06;;;21.70;57.64
72359;BME280;60317;48.880;-0.862;2023-06-22T07:07:09;100606.13;;;21.72;57.34
72359;BME280;60317;48.880;-0.862;2023-06-22T07:09:36;100605.44;;;21.70;57.89
72359;BME280;60317;48.880;-0.862;2023-06-22T07:12:04;100616.31;;;21.68;58.01
72359;BME280;60317;48.880;-0.862;2023-06-22T07:14:31;100614.19;;;21.72;58.21
72359;BME280;60317;48.880;-0.862;2023-06-22T07:16:58;100620.75;;;21.89;58.04
72359;BME280;60317;48.880;-0.862;2023-06-22T07:19:25;100612.41;;;22.02;58.26
72359;BME280;60317;48.880;-0.862;2023-06-22T07:21:52;100628.59;;;22.11;58.04
72359;BME280;60317;48.880;-0.862;2023-06-22T07:24:19;100627.44;;;22.14;58.18
72359;BME280;60317;48.880;-0.862;2023-06-22T07:26:46;100620.63;;;22.10;57.91
72359;BME280;60317;48.880;-0.862;2023-06-22T07:29:14;100629.13;;;22.05;58.24
72359;BME280;60317;48.880;-0.862;2023-06-22T07:31:40;100636.38;;;22.05;57.89
72359;BME280;60317;48.880;-0.862;2023-06-22T07:34:07;100628.28;;;21.95;58.02
72359;BME280;60317;48.880;-0.862;2023-06-22T07:36:34;100627.56;;;21.83;57.81
72359;BME280;60317;48.880;-0.862;2023-06-22T07:39:01;100629.22;;;21.75;57.67
72359;BME280;60317;48.880;-0.862;2023-06-22T07:41:27;100632.22;;;21.81;57.48
72359;BME280;60317;48.880;-0.862;2023-06-22T07:43:54;100635.16;;;21.78;57.38
72359;BME280;60317;48.880;-0.862;2023-06-22T07:46:23;100633.47;;;21.77;57.42
72359;BME280;60317;48.880;-0.862;2023-06-22T07:48:50;100635.72;;;21.72;57.34
72359;BME280;60317;48.880;-0.862;2023-06-22T07:51:18;100634.03;;;21.71;57.19
72359;BME280;60317;48.880;-0.862;2023-06-22T07:53:44;100640.00;;;21.84;57.03
72359;BME280;60317;48.880;-0.862;2023-06-22T07:56:11;100640.31;;;21.91;57.11
72359;BME280;60317;48.880;-0.862;2023-06-22T07:58:38;100648.09;;;21.94;56.82
72359;BME280;60317;48.880;-0.862;2023-06-22T08:01:05;100647.22;;;21.84;56.87
72359;BME280;60317;48.880;-0.862;2023-06-22T08:03:35;100637.72;;;21.70;56.93
72359;BME280;60317;48.880;-0.862;2023-06-22T08:06:01;100642.38;;;21.68;56.95
72359;BME280;60317;48.880;-0.862;2023-06-22T08:08:28;100634.28;;;21.68;57.12
72359;BME280;60317;48.880;-0.862;2023-06-22T08:10:54;100631.34;;;21.71;57.21
72359;BME280;60317;48.880;-0.862;2023-06-22T08:13:21;100632.88;;;21.64;57.26
72359;BME280;60317;48.880;-0.862;2023-06-22T08:15:48;100638.78;;;21.58;57.70
72359;BME280;60317;48.880;-0.862;2023-06-22T08:18:16;100645.47;;;21.63;57.53
72359;BME280;60317;48.880;-0.862;2023-06-22T08:20:43;100647.75;;;21.68;57.74
72359;BME280;60317;48.880;-0.862;2023-06-22T08:23:10;100644.50;;;21.74;57.84
72359;BME280;60317;48.880;-0.862;2023-06-22T08:25:37;100652.03;;;21.80;57.66
72359;BME280;60317;48.880;-0.862;2023-06-22T08:28:04;100649.75;;;21.76;58.36
72359;BME280;60317;48.880;-0.862;2023-06-22T08:30:31;100643.34;;;21.67;58.58
72359;BME280;60317;48.880;-0.862;2023-06-22T08:32:57;100641.81;;;21.74;58.31
72359;BME280;60317;48.880;-0.862;2023-06-22T08:35:24;100653.00;;;21.79;58.33
72359;BME280;60317;48.880;-0.862;2023-06-22T08:37:52;100646.50;;;21.82;58.54
72359;BME280;60317;48.880;-0.862;2023-06-22T08:40:19;100656.00;;;21.86;58.41
72359;BME280;60317;48.880;-0.862;2023-06-22T08:42:47;100657.41;;;21.90;58.39
72359;BME280;60317;48.880;-0.862;2023-06-22T08:45:14;100647.94;;;21.86;58.62
72359;BME280;60317;48.880;-0.862;2023-06-22T08:47:41;100654.59;;;21.82;58.78
72359;BME280;60317;48.880;-0.862;2023-06-22T08:50:08;100665.66;;;21.88;58.57
72359;BME280;60317;48.880;-0.862;2023-06-22T08:52:35;100667.34;;;21.89;58.35
72359;BME280;60317;48.880;-0.862;2023-06-22T08:55:04;100666.94;;;21.94;58.30
72359;BME280;60317;48.880;-0.862;2023-06-22T08:57:31;100670.03;;;21.89;58.34
72359;BME280;60317;48.880;-0.862;2023-06-22T08:59:57;100673.72;;;21.88;58.55
72359;BME280;60317;48.880;-0.862;2023-06-22T09:02:24;100663.53;;;21.92;58.28
72359;BME280;60317;48.880;-0.862;2023-06-22T09:04:51;100664.66;;;21.89;58.48
72359;BME280;60317;48.880;-0.862;2023-06-22T09:07:17;100668.75;;;21.93;58.47
72359;BME280;60317;48.880;-0.862;2023-06-22T09:09:44;100679.72;;;22.02;58.36
72359;BME280;60317;48.880;-0.862;2023-06-22T09:12:12;100678.44;;;22.06;58.13
72359;BME280;60317;48.880;-0.862;2023-06-22T09:14:38;100684.38;;;22.00;58.12
72359;BME280;60317;48.880;-0.862;2023-06-22T09:17:05;100677.84;;;22.02;58.17
72359;BME280;60317;48.880;-0.862;2023-06-22T09:19:31;100677.97;;;22.01;58.07
72359;BME280;60317;48.880;-0.862;2023-06-22T09:21:58;100676.88;;;22.03;57.92
72359;BME280;60317;48.880;-0.862;2023-06-22T09:24:24;100682.41;;;22.02;58.04
72359;BME280;60317;48.880;-0.862;2023-06-22T09:26:51;100676.00;;;22.03;57.89
72359;BME280;60317;48.880;-0.862;2023-06-22T09:29:19;100689.47;;;22.03;57.80
72359;BME280;60317;48.880;-0.862;2023-06-22T09:31:46;100693.16;;;22.02;57.40
72359;BME280;60317;48.880;-0.862;2023-06-22T09:34:12;100685.78;;;22.04;57.59
72359;BME280;60317;48.880;-0.862;2023-06-22T09:36:40;100686.78;;;22.03;57.89
72359;BME280;60317;48.880;-0.862;2023-06-22T09:39:07;100689.19;;;22.06;57.89
72359;BME280;60317;48.880;-0.862;2023-06-22T09:41:34;100698.97;;;22.07;58.02
72359;BME280;60317;48.880;-0.862;2023-06-22T09:44:00;100694.44;;;22.07;58.08
72359;BME280;60317;48.880;-0.862;2023-06-22T09:46:28;100695.59;;;22.05;58.62
72359;BME280;60317;48.880;-0.862;2023-06-22T09:48:55;100699.81;;;22.07;58.39
72359;BME280;60317;48.880;-0.862;2023-06-22T09:51:22;100701.38;;;22.10;58.41
72359;BME280;60317;48.880;-0.862;2023-06-22T09:53:48;100704.06;;;22.10;58.31
72359;BME280;60317;48.880;-0.862;2023-06-22T09:56:15;100703.81;;;22.13;56.79
72359;BME280;60317;48.880;-0.862;2023-06-22T09:58:43;100691.34;;;22.12;57.10
72359;BME280;60317;48.880;-0.862;2023-06-22T10:01:10;100698.97;;;22.07;57.63
72359;BME280;60317;48.880;-0.862;2023-06-22T10:03:38;100698.97;;;22.07;57.83
72359;BME280;60317;48.880;-0.862;2023-06-22T10:06:04;100700.59;;;22.19;57.92
72359;BME280;60317;48.880;-0.862;2023-06-22T10:08:31;100698.47;;;22.23;57.92
72359;BME280;60317;48.880;-0.862;2023-06-22T10:10:58;100692.81;;;22.26;57.82
72359;BME280;60317;48.880;-0.862;2023-06-22T10:13:24;100694.50;;;22.27;57.81
72359;BME280;60317;48.880;-0.862;2023-06-22T10:15:51;100695.19;;;22.29;57.71
72359;BME280;60317;48.880;-0.862;2023-06-22T10:18:18;100704.16;;;22.29;57.59
72359;BME280;60317;48.880;-0.862;2023-06-22T10:20:47;100697.34;;;22.35;57.33
72359;BME280;60317;48.880;-0.862;2023-06-22T10:23:14;100701.59;;;22.37;57.39
72359;BME280;60317;48.880;-0.862;2023-06-22T10:25:40;100710.66;;;22.46;57.31
72359;BME280;60317;48.880;-0.862;2023-06-22T10:28:07;100703.59;;;22.45;57.46
72359;BME280;60317;48.880;-0.862;2023-06-22T10:30:34;100708.69;;;22.48;57.29
72359;BME280;60317;48.880;-0.862;2023-06-22T10:33:00;100698.22;;;22.55;57.03
72359;BME280;60317;48.880;-0.862;2023-06-22T10:35:27;100708.16;;;22.54;56.92
72359;BME280;60317;48.880;-0.862;2023-06-22T10:37:55;100709.00;;;22.55;56.97
72359;BME280;60317;48.880;-0.862;2023-06-22T10:40:22;100707.88;;;22.57;56.61
72359;BME280;60317;48.880;-0.862;2023-06-22T10:42:49;100710.41;;;22.59;56.47
72359;BME280;60317;48.880;-0.862;2023-06-22T10:45:15;100706.03;;;22.58;56.75
72359;BME280;60317;48.880;-0.862;2023-06-22T10:47:42;100704.16;;;22.58;56.96
72359;BME280;60317;48.880;-0.862;2023-06-22T10:50:09;100707.88;;;22.57;56.79
72359;BME280;60317;48.880;-0.862;2023-06-22T10:52:36;100698.50;;;22.61;56.64
72359;BME280;60317;48.880;-0.862;2023-06-22T10:55:05;100705.59;;;22.62;56.73
72359;BME280;60317;48.880;-0.862;2023-06-22T10:57:31;100718.06;;;22.63;57.16
72359;BME280;60317;48.880;-0.862;2023-06-22T10:59:58;100709.56;;;22.68;56.71
72359;BME280;60317;48.880;-0.862;2023-06-22T11:02:25;100709.13;;;22.63;56.69
72359;BME280;60317;48.880;-0.862;2023-06-22T11:04:51;100715.50;;;22.62;56.91
72359;BME280;60317;48.880;-0.862;2023-06-22T11:07:18;100711.13;;;22.61;57.16
72359;BME280;60317;48.880;-0.862;2023-06-22T11:09:45;100710.69;;;22.66;57.21
72359;BME280;60317;48.880;-0.862;2023-06-22T11:12:13;100714.38;;;22.65;57.33
72359;BME280;60317;48.880;-0.862;2023-06-22T11:14:39;100716.50;;;22.61;57.32
72359;BME280;60317;48.880;-0.862;2023-06-22T11:17:06;100719.75;;;22.74;57.07
72359;BME280;60317;48.880;-0.862;2023-06-22T11:19:33;100723.69;;;23.38;55.35
72359;BME280;60317;48.880;-0.862;2023-06-22T11:21:59;100722.31;;;23.05;56.68
72359;BME280;60317;48.880;-0.862;2023-06-22T11:24:26;100713.22;;;23.06;57.00
72359;BME280;60317;48.880;-0.862;2023-06-22T11:26:52;100715.94;;;24.18;53.95
72359;BME280;60317;48.880;-0.862;2023-06-22T11:29:20;100718.97;;;23.40;56.35
72359;BME280;60317;48.880;-0.862;2023-06-22T11:32:02;100719.44;;;23.16;57.16
72359;BME280;60317;48.880;-0.862;2023-06-22T11:34:28;100724.00;;;23.16;57.11
72359;BME280;60317;48.880;-0.862;2023-06-22T11:36:55;100718.75;;;23.14;57.20
72359;BME280;60317;48.880;-0.862;2023-06-22T11:39:21;100721.88;;;23.19;56.63
72359;BME280;60317;48.880;-0.862;2023-06-22T11:42:05;100709.78;;;23.23;56.45
72359;BME280;60317;48.880;-0.862;2023-06-22T11:44:32;100718.88;;;23.22;56.28
72359;BME280;60317;48.880;-0.862;2023-06-22T11:46:59;100721.44;;;23.24;56.35
72359;BME280;60317;48.880;-0.862;2023-06-22T11:49:26;100721.13;;;23.27;56.88
72359;BME280;60317;48.880;-0.862;2023-06-22T11:51:52;100722.56;;;23.31;56.12
72359;BME280;60317;48.880;-0.862;2023-06-22T11:54:19;100713.31;;;23.33;56.00
72359;BME280;60317;48.880;-0.862;2023-06-22T11:56:46;100723.13;;;23.34;56.08
72359;BME280;60317;48.880;-0.862;2023-06-22T11:59:12;100720.25;;;23.36;55.73
72359;BME280;60317;48.880;-0.862;2023-06-22T12:01:40;100728.34;;;23.36;56.20
72359;BME280;60317;48.880;-0.862;2023-06-22T12:04:07;100731.06;;;23.36;56.32
72359;BME280;60317;48.880;-0.862;2023-06-22T12:06:35;100725.38;;;23.39;56.38
72359;BME280;60317;48.880;-0.862;2023-06-22T12:09:02;100730.91;;;23.38;56.06
72359;BME280;60317;48.880;-0.862;2023-06-22T12:11:29;100718.00;;;23.41;56.22
72359;BME280;60317;48.880;-0.862;2023-06-22T12:13:55;100723.53;;;23.40;56.34
72359;BME280;60317;48.880;-0.862;2023-06-22T12:16:22;100732.47;;;23.40;56.42
72359;BME280;60317;48.880;-0.862;2023-06-22T12:18:50;100740.13;;;23.45;55.75
72359;BME280;60317;48.880;-0.862;2023-06-22T12:21:16;100731.72;;;23.48;54.73
72359;BME280;60317;48.880;-0.862;2023-06-22T12:23:43;100731.13;;;23.54;54.26
72359;BME280;60317;48.880;-0.862;2023-06-22T12:26:09;100729.72;;;23.60;53.83
72359;BME280;60317;48.880;-0.862;2023-06-22T12:28:36;100732.69;;;23.56;54.30
72359;BME280;60317;48.880;-0.862;2023-06-22T12:31:02;100731.41;;;23.61;54.31
72359;BME280;60317;48.880;-0.862;2023-06-22T12:33:29;100727.00;;;23.60;54.91
72359;BME280;60317;48.880;-0.862;2023-06-22T12:35:57;100728.41;;;23.64;54.12
72359;BME280;60317;48.880;-0.862;2023-06-22T12:38:23;100724.72;;;23.65;54.49
72359;BME280;60317;48.880;-0.862;2023-06-22T12:40:50;100723.69;;;23.66;55.11